sensor_id;sensor_type;location;lat;lon;timestamp;noise_LAeq;noise_LA_min;noise_LA_max;noise_LA01;noise_LA95
85141;Laerm;75501;52.586;13.284;2024-02-14T00:01:10;58.84;54.10;66.77;;
85141;Laerm;75501;52.586;13.284;2024-02-14T00:03:38;59.57;54.71;63.50;;
85141;Laerm;75501;52.586;13.284;2024-02-14T00:06:07;59.98;54.05;70.06;;
85141;Laerm;75501;52.586;13.284;2024-02-14T00:08:35;61.49;56.89;69.17;;
85141;Laerm;75501;52.586;13.284;2024-02-14T00:11:04;62.50;56.47;67.88;;
85141;Laerm;75501;52.586;13.284;2024-02-14T00:13:33;59.52;54.14;67.12;;
85141;Laerm;75501;52.586;13.284;2024-02-14T00:16:02;59.48;54.11;72.10;;
85141;Laerm;75501;52.586;13.284;2024-02-14T00:18:32;60.18;54.58;72.74;;
85141;Laerm;75501;52.586;13.284;2024-02-14T00:21:00;60.49;55.43;67.72;;
85141;Laerm;75501;52.586;13.284;2024-02-14T00:23:28;58.09;55.31;66.11;;
85141;Laerm;75501;52.586;13.284;2024-02-14T00:25:57;57.82;55.22;67.02;;
85141;Laerm;75501;52.586;13.284;2024-02-14T00:28:25;57.44;54.79;68.24;;
85141;Laerm;75501;52.586;13.284;2024-02-14T00:30:54;58.50;54.71;71.41;;
85141;Laerm;75501;52.586;13.284;2024-02-14T00:33:22;58.49;55.48;66.80;;
85141;Laerm;75501;52.586;13.284;2024-02-14T00:35:52;58.29;54.88;71.79;;
85141;Laerm;75501;52.586;13.284;2024-02-14T00:38:21;58.15;54.94;66.82;;
85141;Laerm;75501;52.586;13.284;2024-02-14T00:40:49;59.73;55.32;68.38;;
85141;Laerm;75501;52.586;13.284;2024-02-14T00:43:17;59.19;55.06;68.57;;
85141;Laerm;75501;52.586;13.284;2024-02-14T00:45:45;59.30;54.22;67.36;;
85141;Laerm;75501;52.586;13.284;2024-02-14T00:48:14;60.99;55.30;71.84;;
85141;Laerm;75501;52.586;13.284;2024-02-14T00:50:43;60.02;56.79;72.49;;
85141;Laerm;75501;52.586;13.284;2024-02-14T00:53:13;59.10;54.85;71.63;;
85141;Laerm;75501;52.586;13.284;2024-02-14T00:55:41;58.07;54.84;67.67;;
85141;Laerm;75501;52.586;13.284;2024-02-14T00:58:09;58.00;53.94;68.54;;
85141;Laerm;75501;52.586;13.284;2024-02-14T01:00:38;58.69;53.75;66.39;;
85141;Laerm;75501;52.586;13.284;2024-02-14T01:03:06;60.03;55.22;72.31;;
85141;Laerm;75501;52.586;13.284;2024-02-14T01:05:39;58.42;54.71;68.97;;
85141;Laerm;75501;52.586;13.284;2024-02-14T01:08:07;57.98;54.19;68.00;;
85141;Laerm;75501;52.586;13.284;2024-02-14T01:10:37;57.48;54.68;67.78;;
85141;Laerm;75501;52.586;13.284;2024-02-14T01:13:05;57.32;54.72;64.37;;
85141;Laerm;75501;52.586;13.284;2024-02-14T01:15:34;56.69;53.25;64.75;;
85141;Laerm;75501;52.586;13.284;2024-02-14T01:18:02;57.38;54.44;66.14;;
85141;Laerm;75501;52.586;13.284;2024-02-14T01:20:30;57.77;55.28;65.36;;
85141;Laerm;75501;52.586;13.284;2024-02-14T01:22:59;58.46;54.96;67.68;;
85141;Laerm;75501;52.586;13.284;2024-02-14T01:25:27;57.88;54.76;67.05;;
85141;Laerm;75501;52.586;13.284;2024-02-14T01:27:56;59.47;55.64;67.43;;
85141;Laerm;75501;52.586;13.284;2024-02-14T01:30:24;59.76;54.92;67.38;;
85141;Laerm;75501;52.586;13.284;2024-02-14T01:32:54;59.10;55.34;71.35;;
85141;Laerm;75501;52.586;13.284;2024-02-14T01:35:22;59.99;55.22;71.55;;
85141;Laerm;75501;52.586;13.284;2024-02-14T01:37:51;59.05;55.14;71.51;;
85141;Laerm;75501;52.586;13.284;2024-02-14T01:40:19;58.44;53.83;72.00;;
85141;Laerm;75501;52.586;13.284;2024-02-14T01:42:47;58.81;54.89;67.33;;
85141;Laerm;75501;52.586;13.284;2024-02-14T01:45:17;58.76;55.28;66.82;;
85141;Laerm;75501;52.586;13.284;2024-02-14T01:47:45;61.17;55.03;70.92;;
85141;Laerm;75501;52.586;13.284;2024-02-14T01:50:14;59.79;56.25;68.16;;
85141;Laerm;75501;52.586;13.284;2024-02-14T01:52:43;60.31;54.74;73.62;;
85141;Laerm;75501;52.586;13.284;2024-02-14T01:55:13;60.23;56.13;71.77;;
85141;Laerm;75501;52.586;13.284;2024-02-14T01:57:41;58.90;54.64;71.90;;
85141;Laerm;75501;52.586;13.284;2024-02-14T02:00:10;60.80;56.55;71.24;;
85141;Laerm;75501;52.586;13.284;2024-02-14T02:02:46;60.97;56.74;69.19;;
85141;Laerm;75501;52.586;13.284;2024-02-14T02:05:15;60.31;55.47;69.76;;
85141;Laerm;75501;52.586;13.284;2024-02-14T02:07:43;59.21;54.48;71.40;;
85141;Laerm;75501;52.586;13.284;2024-02-14T02:10:15;58.14;55.07;65.77;;
85141;Laerm;75501;52.586;13.284;2024-02-14T02:12:43;58.48;53.56;71.69;;
85141;Laerm;75501;52.586;13.284;2024-02-14T02:15:12;58.01;54.41;66.88;;
85141;Laerm;75501;52.586;13.284;2024-02-14T02:17:42;58.87;54.68;68.89;;
85141;Laerm;75501;52.586;13.284;2024-02-14T02:20:17;61.46;56.93;67.21;;
85141;Laerm;75501;52.586;13.284;2024-02-14T02:22:48;58.59;54.50;67.21;;
85141;Laerm;75501;52.586;13.284;2024-02-14T02:25:15;57.76;54.29;67.59;;
85141;Laerm;75501;52.586;13.284;2024-02-14T02:27:44;59.86;54.67;72.08;;
85141;Laerm;75501;52.586;13.284;2024-02-14T02:30:12;59.70;56.26;67.40;;
85141;Laerm;75501;52.586;13.284;2024-02-14T02:32:42;57.94;54.82;70.89;;
85141;Laerm;75501;52.586;13.284;2024-02-14T02:35:11;59.56;55.45;67.15;;
85141;Laerm;75501;52.586;13.284;2024-02-14T02:37:39;59.38;55.28;69.36;;
85141;Laerm;75501;52.586;13.284;2024-02-14T02:40:11;60.00;54.98;66.60;;
85141;Laerm;75501;52.586;13.284;2024-02-14T02:42:41;58.88;54.15;69.64;;
85141;Laerm;75501;52.586;13.284;2024-02-14T02:45:10;58.37;55.15;65.75;;
85141;Laerm;75501;52.586;13.284;2024-02-14T02:47:38;59.12;54.85;71.74;;
85141;Laerm;75501;52.586;13.284;2024-02-14T02:50:07;59.49;55.25;66.93;;
85141;Laerm;75501;52.586;13.284;2024-02-14T02:52:35;58.73;54.77;72.31;;
85141;Laerm;75501;52.586;13.284;2024-02-14T02:55:05;58.30;54.97;71.90;;
85141;Laerm;75501;52.586;13.284;2024-02-14T02:57:35;59.06;55.57;62.31;;
85141;Laerm;75501;52.586;13.284;2024-02-14T03:00:08;59.72;55.22;67.24;;
85141;Laerm;75501;52.586;13.284;2024-02-14T03:02:36;57.53;54.31;65.55;;
85141;Laerm;75501;52.586;13.284;2024-02-14T03:05:08;60.51;56.77;68.42;;
85141;Laerm;75501;52.586;13.284;2024-02-14T03:07:37;59.45;55.95;71.81;;
85141;Laerm;75501;52.586;13.284;2024-02-14T03:10:07;58.77;55.52;66.41;;
85141;Laerm;75501;52.586;13.284;2024-02-14T03:12:37;57.97;54.27;67.34;;
85141;Laerm;75501;52.586;13.284;2024-02-14T03:15:07;56.73;54.25;65.40;;
85141;Laerm;75501;52.586;13.284;2024-02-14T03:17:37;57.46;54.20;65.80;;
85141;Laerm;75501;52.586;13.284;2024-02-14T03:20:07;57.62;54.83;65.92;;
85141;Laerm;75501;52.586;13.284;2024-02-14T03:22:44;58.92;55.99;65.80;;
85141;Laerm;75501;52.586;13.284;2024-02-14T03:25:15;56.70;53.91;70.54;;
85141;Laerm;75501;52.586;13.284;2024-02-14T03:27:46;57.40;54.14;67.08;;
85141;Laerm;75501;52.586;13.284;2024-02-14T03:30:16;57.27;54.39;66.25;;
85141;Laerm;75501;52.586;13.284;2024-02-14T03:32:45;58.17;55.08;71.34;;
85141;Laerm;75501;52.586;13.284;2024-02-14T03:35:15;58.22;54.80;71.68;;
85141;Laerm;75501;52.586;13.284;2024-02-14T03:37:46;57.12;54.38;65.33;;
85141;Laerm;75501;52.586;13.284;2024-02-14T03:40:16;57.61;54.97;66.59;;
85141;Laerm;75501;52.586;13.284;2024-02-14T03:42:46;58.39;54.34;71.44;;
85141;Laerm;75501;52.586;13.284;2024-02-14T03:45:14;57.71;54.80;66.65;;
85141;Laerm;75501;52.586;13.284;2024-02-14T03:47:42;56.91;53.93;71.27;;
85141;Laerm;75501;52.586;13.284;2024-02-14T03:50:11;57.35;54.21;66.79;;
85141;Laerm;75501;52.586;13.284;2024-02-14T03:52:39;57.01;54.36;66.69;;
85141;Laerm;75501;52.586;13.284;2024-02-14T03:55:09;57.02;53.90;65.75;;
85141;Laerm;75501;52.586;13.284;2024-02-14T03:57:40;56.83;53.95;65.28;;
85141;Laerm;75501;52.586;13.284;2024-02-14T04:00:12;57.05;54.18;70.70;;
85141;Laerm;75501;52.586;13.284;2024-02-14T04:02:40;56.44;54.24;65.09;;
85141;Laerm;75501;52.586;13.284;2024-02-14T04:05:09;56.40;53.96;65.40;;
85141;Laerm;75501;52.586;13.284;2024-02-14T04:07:37;56.56;54.20;63.43;;
85141;Laerm;75501;52.586;13.284;2024-02-14T04:10:06;55.92;53.54;63.00;;
85141;Laerm;75501;52.586;13.284;2024-02-14T04:12:36;56.05;53.58;65.18;;
85141;Laerm;75501;52.586;13.284;2024-02-14T04:15:05;56.13;53.77;64.67;;
85141;Laerm;75501;52.586;13.284;2024-02-14T04:17:35;56.38;54.06;64.89;;
85141;Laerm;75501;52.586;13.284;2024-02-14T04:20:05;56.27;53.97;64.26;;
85141;Laerm;75501;52.586;13.284;2024-02-14T04:22:33;56.73;54.43;65.44;;
85141;Laerm;75501;52.586;13.284;2024-02-14T04:25:02;56.07;53.76;62.63;;
85141;Laerm;75501;52.586;13.284;2024-02-14T04:27:30;55.94;53.21;65.04;;
85141;Laerm;75501;52.586;13.284;2024-02-14T04:29:58;56.29;54.26;63.91;;
85141;Laerm;75501;52.586;13.284;2024-02-14T04:32:26;55.74;53.58;62.67;;
85141;Laerm;75501;52.586;13.284;2024-02-14T04:34:56;56.49;53.77;66.56;;
85141;Laerm;75501;52.586;13.284;2024-02-14T04:37:25;57.00;54.41;65.55;;
85141;Laerm;75501;52.586;13.284;2024-02-14T04:39:53;55.70;53.48;63.92;;
85141;Laerm;75501;52.586;13.284;2024-02-14T04:42:21;56.49;54.12;64.08;;
85141;Laerm;75501;52.586;13.284;2024-02-14T04:44:49;55.78;53.41;62.89;;
85141;Laerm;75501;52.586;13.284;2024-02-14T04:47:17;56.03;53.70;65.35;;
85141;Laerm;75501;52.586;13.284;2024-02-14T04:49:47;55.88;53.64;63.66;;
85141;Laerm;75501;52.586;13.284;2024-02-14T04:52:17;55.47;53.67;61.36;;
85141;Laerm;75501;52.586;13.284;2024-02-14T04:54:45;55.24;53.35;69.70;;
85141;Laerm;75501;52.586;13.284;2024-02-14T04:57:13;55.34;53.40;62.80;;
85141;Laerm;75501;52.586;13.284;2024-02-14T04:59:42;55.77;53.58;70.62;;
85141;Laerm;75501;52.586;13.284;2024-02-14T05:02:10;55.73;53.55;63.88;;
85141;Laerm;75501;52.586;13.284;2024-02-14T05:04:38;56.34;53.99;64.85;;
85141;Laerm;75501;52.586;13.284;2024-02-14T05:07:06;56.20;54.05;62.64;;
85141;Laerm;75501;52.586;13.284;2024-02-14T05:09:37;56.11;53.79;70.30;;
85141;Laerm;75501;52.586;13.284;2024-02-14T05:12:05;56.00;53.61;70.71;;
85141;Laerm;75501;52.586;13.284;2024-02-14T05:14:38;55.87;53.41;63.77;;
85141;Laerm;75501;52.586;13.284;2024-02-14T05:17:07;55.78;53.64;70.33;;
85141;Laerm;75501;52.586;13.284;2024-02-14T05:19:35;55.98;53.72;62.59;;
85141;Laerm;75501;52.586;13.284;2024-02-14T05:22:04;56.21;54.06;64.55;;
85141;Laerm;75501;52.586;13.284;2024-02-14T05:24:32;56.48;54.32;64.41;;
85141;Laerm;75501;52.586;13.284;2024-02-14T05:27:04;55.70;53.62;62.72;;
85141;Laerm;75501;52.586;13.284;2024-02-14T05:29:32;55.79;53.25;64.02;;
85141;Laerm;75501;52.586;13.284;2024-02-14T05:32:03;56.28;53.70;59.63;;
85141;Laerm;75501;52.586;13.284;2024-02-14T05:34:31;56.02;53.73;70.74;;
85141;Laerm;75501;52.586;13.284;2024-02-14T05:37:00;55.83;53.59;70.22;;
85141;Laerm;75501;52.586;13.284;2024-02-14T05:39:29;55.40;53.52;60.61;;
85141;Laerm;75501;52.586;13.284;2024-02-14T05:41:57;55.70;53.68;61.60;;
85141;Laerm;75501;52.586;13.284;2024-02-14T05:44:27;55.85;53.72;61.00;;
85141;Laerm;75501;52.586;13.284;2024-02-14T05:46:57;56.43;53.67;64.94;;
85141;Laerm;75501;52.586;13.284;2024-02-14T05:49:25;56.63;54.37;63.35;;
85141;Laerm;75501;52.586;13.284;2024-02-14T05:51:54;56.16;53.80;61.47;;
85141;Laerm;75501;52.586;13.284;2024-02-14T05:54:22;55.68;53.79;62.54;;
85141;Laerm;75501;52.586;13.284;2024-02-14T05:56:50;56.23;53.98;63.11;;
85141;Laerm;75501;52.586;13.284;2024-02-14T05:59:18;56.14;53.74;63.51;;
85141;Laerm;75501;52.586;13.284;2024-02-14T06:01:47;55.90;53.97;62.69;;
85141;Laerm;75501;52.586;13.284;2024-02-14T06:04:15;55.85;53.89;70.05;;
85141;Laerm;75501;52.586;13.284;2024-02-14T06:06:44;55.86;53.65;62.54;;
85141;Laerm;75501;52.586;13.284;2024-02-14T06:09:12;55.92;53.85;65.39;;
85141;Laerm;75501;52.586;13.284;2024-02-14T06:11:40;55.72;53.61;62.47;;
85141;Laerm;75501;52.586;13.284;2024-02-14T06:14:09;55.34;53.45;61.76;;
85141;Laerm;75501;52.586;13.284;2024-02-14T06:16:37;55.29;53.67;62.34;;
85141;Laerm;75501;52.586;13.284;2024-02-14T06:19:06;55.66;53.74;67.15;;
85141;Laerm;75501;52.586;13.284;2024-02-14T06:21:36;55.49;53.53;62.41;;
85141;Laerm;75501;52.586;13.284;2024-02-14T06:24:04;55.89;53.83;63.24;;
85141;Laerm;75501;52.586;13.284;2024-02-14T06:26:33;55.49;53.63;70.33;;
85141;Laerm;75501;52.586;13.284;2024-02-14T06:29:01;56.98;54.53;63.16;;
85141;Laerm;75501;52.586;13.284;2024-02-14T06:31:33;56.50;54.04;64.74;;
85141;Laerm;75501;52.586;13.284;2024-02-14T06:34:01;55.93;54.02;62.61;;
85141;Laerm;75501;52.586;13.284;2024-02-14T06:36:31;55.67;53.76;60.89;;
85141;Laerm;75501;52.586;13.284;2024-02-14T06:38:59;56.42;53.96;59.01;;
85141;Laerm;75501;52.586;13.284;2024-02-14T06:41:27;57.17;54.83;66.76;;
85141;Laerm;75501;52.586;13.284;2024-02-14T06:43:56;56.78;54.72;70.42;;
85141;Laerm;75501;52.586;13.284;2024-02-14T06:46:24;56.02;53.96;63.18;;
85141;Laerm;75501;52.586;13.284;2024-02-14T06:48:52;55.99;53.69;63.40;;
85141;Laerm;75501;52.586;13.284;2024-02-14T06:51:21;55.83;53.65;70.11;;
85141;Laerm;75501;52.586;13.284;2024-02-14T06:53:52;55.92;53.80;70.69;;
85141;Laerm;75501;52.586;13.284;2024-02-14T06:56:20;56.64;54.61;70.21;;
85141;Laerm;75501;52.586;13.284;2024-02-14T06:58:48;56.42;54.28;63.41;;
85141;Laerm;75501;52.586;13.284;2024-02-14T07:01:19;55.90;53.79;62.16;;
85141;Laerm;75501;52.586;13.284;2024-02-14T07:03:49;55.68;53.67;61.45;;
85141;Laerm;75501;52.586;13.284;2024-02-14T07:06:18;55.80;53.55;61.29;;
85141;Laerm;75501;52.586;13.284;2024-02-14T07:08:46;55.56;53.49;61.21;;
85141;Laerm;75501;52.586;13.284;2024-02-14T07:11:17;55.57;53.31;69.81;;
85141;Laerm;75501;52.586;13.284;2024-02-14T07:13:45;55.53;53.54;58.90;;
85141;Laerm;75501;52.586;13.284;2024-02-14T07:16:13;55.44;53.48;60.66;;
85141;Laerm;75501;52.586;13.284;2024-02-14T07:18:41;55.16;53.38;59.01;;
85141;Laerm;75501;52.586;13.284;2024-02-14T07:21:10;55.03;53.24;59.36;;
85141;Laerm;75501;52.586;13.284;2024-02-14T07:23:38;55.16;53.42;68.81;;
85141;Laerm;75501;52.586;13.284;2024-02-14T07:26:06;55.32;53.08;60.97;;
85141;Laerm;75501;52.586;13.284;2024-02-14T07:28:35;55.17;53.42;58.91;;
85141;Laerm;75501;52.586;13.284;2024-02-14T07:31:04;55.30;53.43;69.24;;
85141;Laerm;75501;52.586;13.284;2024-02-14T07:33:31;55.48;53.77;60.96;;
85141;Laerm;75501;52.586;13.284;2024-02-14T07:35:59;55.81;53.60;69.98;;
85141;Laerm;75501;52.586;13.284;2024-02-14T07:38:28;55.79;53.82;61.10;;
85141;Laerm;75501;52.586;13.284;2024-02-14T07:40:56;55.49;53.85;59.28;;
85141;Laerm;75501;52.586;13.284;2024-02-14T07:43:24;55.74;53.77;61.35;;
85141;Laerm;75501;52.586;13.284;2024-02-14T07:45:54;56.35;54.70;62.20;;
85141;Laerm;75501;52.586;13.284;2024-02-14T07:48:22;56.87;54.51;69.92;;
85141;Laerm;75501;52.586;13.284;2024-02-14T07:50:50;56.40;54.50;62.55;;
85141;Laerm;75501;52.586;13.284;2024-02-14T07:53:18;55.95;54.03;60.77;;
85141;Laerm;75501;52.586;13.284;2024-02-14T07:55:46;56.31;54.13;61.52;;
85141;Laerm;75501;52.586;13.284;2024-02-14T07:58:16;56.32;54.55;64.38;;
85141;Laerm;75501;52.586;13.284;2024-02-14T08:00:44;56.23;54.13;61.22;;
85141;Laerm;75501;52.586;13.284;2024-02-14T08:03:13;55.87;54.16;61.09;;
85141;Laerm;75501;52.586;13.284;2024-02-14T08:05:41;55.35;53.64;69.06;;
85141;Laerm;75501;52.586;13.284;2024-02-14T08:08:10;55.32;53.69;58.40;;
85141;Laerm;75501;52.586;13.284;2024-02-14T08:10:38;55.22;53.40;59.81;;
85141;Laerm;75501;52.586;13.284;2024-02-14T08:13:06;55.25;53.40;58.60;;
85141;Laerm;75501;52.586;13.284;2024-02-14T08:15:34;55.44;53.46;60.81;;
85141;Laerm;75501;52.586;13.284;2024-02-14T08:18:05;55.64;54.11;60.03;;
85141;Laerm;75501;52.586;13.284;2024-02-14T08:20:37;55.50;53.67;60.30;;
85141;Laerm;75501;52.586;13.284;2024-02-14T08:23:05;55.57;53.69;69.92;;
85141;Laerm;75501;52.586;13.284;2024-02-14T08:25:33;55.27;53.47;58.76;;
85141;Laerm;75501;52.586;13.284;2024-02-14T08:28:01;55.33;53.37;60.13;;
85141;Laerm;75501;52.586;13.284;2024-02-14T08:30:30;54.99;53.25;59.43;;
85141;Laerm;75501;52.586;13.284;2024-02-14T08:32:58;56.11;53.71;63.31;;
85141;Laerm;75501;52.586;13.284;2024-02-14T08:35:26;55.63;53.69;61.12;;
85141;Laerm;75501;52.586;13.284;2024-02-14T08:37:56;55.06;53.42;59.54;;
85141;Laerm;75501;52.586;13.284;2024-02-14T08:40:25;54.85;53.16;61.17;;
85141;Laerm;75501;52.586;13.284;2024-02-14T08:42:53;55.29;53.41;61.79;;
85141;Laerm;75501;52.586;13.284;2024-02-14T08:45:21;55.36;53.44;60.85;;
85141;Laerm;75501;52.586;13.284;2024-02-14T08:47:49;55.15;53.25;61.23;;
85141;Laerm;75501;52.586;13.284;2024-02-14T08:50:18;54.93;53.32;60.12;;
85141;Laerm;75501;52.586;13.284;2024-02-14T08:52:46;54.91;53.02;59.84;;
85141;Laerm;75501;52.586;13.284;2024-02-14T08:55:15;55.09;53.37;63.70;;
85141;Laerm;75501;52.586;13.284;2024-02-14T08:57:45;54.97;52.94;58.95;;
85141;Laerm;75501;52.586;13.284;2024-02-14T09:00:16;54.61;53.17;58.28;;
85141;Laerm;75501;52.586;13.284;2024-02-14T09:02:47;54.68;53.18;58.53;;
85141;Laerm;75501;52.586;13.284;2024-02-14T09:05:15;54.79;53.28;68.70;;
85141;Laerm;75501;52.586;13.284;2024-02-14T09:07:45;55.05;52.88;62.59;;
85141;Laerm;75501;52.586;13.284;2024-02-14T09:10:14;54.38;52.91;56.73;;
85141;Laerm;75501;52.586;13.284;2024-02-14T09:12:43;54.72;53.12;69.23;;
85141;Laerm;75501;52.586;13.284;2024-02-14T09:15:11;55.00;52.90;62.57;;
85141;Laerm;75501;52.586;13.284;2024-02-14T09:17:39;54.99;53.25;59.37;;
85141;Laerm;75501;52.586;13.284;2024-02-14T09:20:10;55.00;53.12;69.59;;
85141;Laerm;75501;52.586;13.284;2024-02-14T09:22:41;54.80;53.25;59.78;;
85141;Laerm;75501;52.586;13.284;2024-02-14T09:25:09;55.21;53.18;61.67;;
85141;Laerm;75501;52.586;13.284;2024-02-14T09:27:38;56.48;53.55;62.96;;
85141;Laerm;75501;52.586;13.284;2024-02-14T09:30:08;56.10;53.33;61.75;;
85141;Laerm;75501;52.586;13.284;2024-02-14T09:32:53;55.97;53.39;63.08;;
85141;Laerm;75501;52.586;13.284;2024-02-14T09:35:22;56.09;53.28;65.15;;
85141;Laerm;75501;52.586;13.284;2024-02-14T09:37:50;56.85;53.87;62.92;;
85141;Laerm;75501;52.586;13.284;2024-02-14T09:40:18;57.20;53.58;64.94;;
85141;Laerm;75501;52.586;13.284;2024-02-14T09:42:54;56.28;53.39;62.75;;
85141;Laerm;75501;52.586;13.284;2024-02-14T09:45:25;55.43;52.84;61.39;;
85141;Laerm;75501;52.586;13.284;2024-02-14T09:47:54;55.63;52.93;62.96;;
85141;Laerm;75501;52.586;13.284;2024-02-14T09:50:29;57.41;53.32;64.31;;
85141;Laerm;75501;52.586;13.284;2024-02-14T09:52:59;57.25;53.60;67.53;;
85141;Laerm;75501;52.586;13.284;2024-02-14T09:55:29;59.08;54.55;71.72;;
85141;Laerm;75501;52.586;13.284;2024-02-14T09:57:58;58.13;54.95;65.53;;
85141;Laerm;75501;52.586;13.284;2024-02-14T10:00:31;58.31;54.07;64.07;;
85141;Laerm;75501;52.586;13.284;2024-02-14T10:03:00;56.90;54.02;70.31;;
85141;Laerm;75501;52.586;13.284;2024-02-14T10:05:28;56.85;53.23;62.59;;
85141;Laerm;75501;52.586;13.284;2024-02-14T10:07:57;58.63;53.15;71.02;;
85141;Laerm;75501;52.586;13.284;2024-02-14T10:10:25;59.74;53.89;72.00;;
85141;Laerm;75501;52.586;13.284;2024-02-14T10:12:54;58.81;54.34;71.90;;
85141;Laerm;75501;52.586;13.284;2024-02-14T10:15:24;58.85;55.53;67.58;;
85141;Laerm;75501;52.586;13.284;2024-02-14T10:17:52;58.48;54.90;66.73;;
85141;Laerm;75501;52.586;13.284;2024-02-14T10:20:21;57.11;53.77;70.13;;
85141;Laerm;75501;52.586;13.284;2024-02-14T10:22:49;57.83;53.92;67.54;;
85141;Laerm;75501;52.586;13.284;2024-02-14T10:25:18;58.80;54.57;67.87;;
85141;Laerm;75501;52.586;13.284;2024-02-14T10:27:48;59.69;54.50;68.52;;
85141;Laerm;75501;52.586;13.284;2024-02-14T10:30:16;60.51;56.26;68.60;;
85141;Laerm;75501;52.586;13.284;2024-02-14T10:32:46;59.09;54.84;67.61;;
85141;Laerm;75501;52.586;13.284;2024-02-14T10:35:16;58.75;54.49;67.67;;
85141;Laerm;75501;52.586;13.284;2024-02-14T10:37:45;60.60;54.40;69.78;;
85141;Laerm;75501;52.586;13.284;2024-02-14T10:40:15;58.08;54.14;66.15;;
85141;Laerm;75501;52.586;13.284;2024-02-14T10:42:44;57.58;54.18;66.17;;
85141;Laerm;75501;52.586;13.284;2024-02-14T10:45:12;59.09;54.55;67.88;;
85141;Laerm;75501;52.586;13.284;2024-02-14T10:47:43;58.30;53.61;67.12;;
85141;Laerm;75501;52.586;13.284;2024-02-14T10:50:17;59.78;54.65;70.16;;
85141;Laerm;75501;52.586;13.284;2024-02-14T10:52:49;58.07;53.27;64.90;;
85141;Laerm;75501;52.586;13.284;2024-02-14T10:55:24;55.57;53.12;61.54;;
85141;Laerm;75501;52.586;13.284;2024-02-14T10:57:53;56.11;53.09;61.36;;
85141;Laerm;75501;52.586;13.284;2024-02-14T11:00:22;55.76;52.96;69.75;;
85141;Laerm;75501;52.586;13.284;2024-02-14T11:02:52;55.94;52.52;66.37;;
85141;Laerm;75501;52.586;13.284;2024-02-14T11:05:22;56.88;53.89;64.39;;
85141;Laerm;75501;52.586;13.284;2024-02-14T11:07:50;57.09;53.98;65.07;;
85141;Laerm;75501;52.586;13.284;2024-02-14T11:10:22;56.69;53.83;70.58;;
85141;Laerm;75501;52.586;13.284;2024-02-14T11:12:50;57.89;54.42;67.01;;
85141;Laerm;75501;52.586;13.284;2024-02-14T11:15:21;57.99;54.52;66.74;;
85141;Laerm;75501;52.586;13.284;2024-02-14T11:17:50;57.30;54.35;67.43;;
85141;Laerm;75501;52.586;13.284;2024-02-14T11:20:30;58.11;54.78;70.67;;
85141;Laerm;75501;52.586;13.284;2024-02-14T11:23:03;57.12;53.70;65.41;;
85141;Laerm;75501;52.586;13.284;2024-02-14T11:25:33;57.05;53.46;66.21;;
85141;Laerm;75501;52.586;13.284;2024-02-14T11:28:13;57.91;54.46;65.82;;
85141;Laerm;75501;52.586;13.284;2024-02-14T11:30:42;57.78;54.49;61.30;;
85141;Laerm;75501;52.586;13.284;2024-02-14T11:33:17;58.24;53.94;71.59;;
85141;Laerm;75501;52.586;13.284;2024-02-14T11:35:49;58.96;54.01;67.70;;
85141;Laerm;75501;52.586;13.284;2024-02-14T11:38:19;59.32;55.10;67.62;;
85141;Laerm;75501;52.586;13.284;2024-02-14T11:40:48;60.65;55.58;71.98;;
85141;Laerm;75501;52.586;13.284;2024-02-14T11:43:19;61.79;56.15;68.73;;
85141;Laerm;75501;52.586;13.284;2024-02-14T11:45:48;60.31;56.17;68.96;;
85141;Laerm;75501;52.586;13.284;2024-02-14T11:48:18;61.21;54.83;72.88;;
85141;Laerm;75501;52.586;13.284;2024-02-14T11:50:51;60.53;54.84;69.34;;
85141;Laerm;75501;52.586;13.284;2024-02-14T11:53:20;60.85;55.45;71.33;;
85141;Laerm;75501;52.586;13.284;2024-02-14T11:55:49;61.06;56.25;72.17;;
85141;Laerm;75501;52.586;13.284;2024-02-14T11:58:17;60.42;56.24;68.93;;
85141;Laerm;75501;52.586;13.284;2024-02-14T12:00:46;59.62;54.57;67.16;;
85141;Laerm;75501;52.586;13.284;2024-02-14T12:03:18;60.22;55.17;68.86;;
85141;Laerm;75501;52.586;13.284;2024-02-14T12:05:51;61.30;55.19;68.25;;
85141;Laerm;75501;52.586;13.284;2024-02-14T12:08:20;61.43;55.92;72.15;;
85141;Laerm;75501;52.586;13.284;2024-02-14T12:10:49;62.38;55.65;70.61;;
85141;Laerm;75501;52.586;13.284;2024-02-14T12:13:21;61.99;55.28;70.30;;
85141;Laerm;75501;52.586;13.284;2024-02-14T12:15:50;61.17;54.95;70.83;;
85141;Laerm;75501;52.586;13.284;2024-02-14T12:18:20;61.93;55.47;70.18;;
85141;Laerm;75501;52.586;13.284;2024-02-14T12:20:50;60.19;55.31;69.16;;
85141;Laerm;75501;52.586;13.284;2024-02-14T12:23:22;60.68;54.09;70.64;;
85141;Laerm;75501;52.586;13.284;2024-02-14T12:25:53;59.86;55.10;68.46;;
85141;Laerm;75501;52.586;13.284;2024-02-14T12:28:23;59.89;55.86;69.16;;
85141;Laerm;75501;52.586;13.284;2024-02-14T12:30:51;59.10;55.48;71.69;;
85141;Laerm;75501;52.586;13.284;2024-02-14T12:33:24;58.81;55.00;68.15;;
85141;Laerm;75501;52.586;13.284;2024-02-14T12:35:55;59.38;56.18;68.67;;
85141;Laerm;75501;52.586;13.284;2024-02-14T12:38:25;60.35;54.77;77.82;;
85141;Laerm;75501;52.586;13.284;2024-02-14T12:40:53;58.35;54.42;67.55;;
85141;Laerm;75501;52.586;13.284;2024-02-14T12:43:21;59.61;55.72;69.38;;
85141;Laerm;75501;52.586;13.284;2024-02-14T12:45:49;60.44;56.08;70.58;;
85141;Laerm;75501;52.586;13.284;2024-02-14T12:48:23;60.55;55.39;69.16;;
85141;Laerm;75501;52.586;13.284;2024-02-14T12:50:55;60.87;55.36;68.53;;
85141;Laerm;75501;52.586;13.284;2024-02-14T12:53:24;59.28;55.55;69.83;;
85141;Laerm;75501;52.586;13.284;2024-02-14T12:55:53;59.22;54.81;71.08;;
85141;Laerm;75501;52.586;13.284;2024-02-14T12:58:21;59.95;55.18;68.03;;
85141;Laerm;75501;52.586;13.284;2024-02-14T13:00:49;62.09;55.18;73.06;;
85141;Laerm;75501;52.586;13.284;2024-02-14T13:03:18;61.31;55.24;70.65;;
85141;Laerm;75501;52.586;13.284;2024-02-14T13:05:46;61.12;55.26;69.34;;
85141;Laerm;75501;52.586;13.284;2024-02-14T13:08:16;60.66;55.48;69.48;;
85141;Laerm;75501;52.586;13.284;2024-02-14T13:10:44;62.33;55.21;67.25;;
85141;Laerm;75501;52.586;13.284;2024-02-14T13:13:12;62.72;55.59;72.34;;
85141;Laerm;75501;52.586;13.284;2024-02-14T13:15:42;62.62;55.54;73.89;;
85141;Laerm;75501;52.586;13.284;2024-02-14T13:18:11;63.22;56.71;72.45;;
85141;Laerm;75501;52.586;13.284;2024-02-14T13:20:40;62.50;55.71;71.88;;
85141;Laerm;75501;52.586;13.284;2024-02-14T13:23:09;61.86;56.97;74.11;;
85141;Laerm;75501;52.586;13.284;2024-02-14T13:25:38;64.31;57.24;75.44;;
85141;Laerm;75501;52.586;13.284;2024-02-14T13:28:06;62.41;57.38;74.24;;
85141;Laerm;75501;52.586;13.284;2024-02-14T13:30:34;66.21;59.32;76.37;;
85141;Laerm;75501;52.586;13.284;2024-02-14T13:33:04;63.63;56.90;74.15;;
85141;Laerm;75501;52.586;13.284;2024-02-14T13:35:33;63.94;57.15;74.20;;
85141;Laerm;75501;52.586;13.284;2024-02-14T13:38:05;65.74;57.54;74.22;;
85141;Laerm;75501;52.586;13.284;2024-02-14T13:40:33;62.62;56.94;74.28;;
85141;Laerm;75501;52.586;13.284;2024-02-14T13:43:03;62.28;56.57;72.75;;